createdAt,value
2023-05-24T00:01:58.779Z,98857.59
2023-05-24T00:05:01.974Z,98854.59
2023-05-24T00:08:04.849Z,98849.31
2023-05-24T00:11:08.713Z,98847.50
2023-05-24T00:14:11.345Z,98849.94
2023-05-24T00:17:14.049Z,98840.19
2023-05-24T00:20:17.213Z,98841.78
2023-05-24T00:23:19.900Z,98837.25
2023-05-24T00:26:23.793Z,98839.50
2023-05-24T00:29:26.320Z,98836.81
2023-05-24T00:32:28.985Z,98835.16
2023-05-24T00:35:31.600Z,98837.25
2023-05-24T00:38:34.389Z,98832.56
2023-05-24T00:41:38.335Z,98826.72
2023-05-24T00:44:41.018Z,98826.47
2023-05-24T00:47:43.788Z,98831.28
2023-05-24T00:50:46.350Z,98827.16
2023-05-24T00:53:49.893Z,98822.88
2023-05-24T00:56:54.716Z,98814.66
2023-05-24T00:59:57.819Z,98831.19
2023-05-24T01:03:01.155Z,98825.44
2023-05-24T01:06:04.737Z,98827.38
2023-05-24T01:09:14.973Z,98827.19
2023-05-24T01:12:24.343Z,98829.06
2023-05-24T01:15:35.118Z,98830.25
2023-05-24T01:18:41.112Z,98833.00
2023-05-24T01:21:51.764Z,98826.09
2023-05-24T01:25:02.239Z,98826.91
2023-05-24T01:28:06.209Z,98828.94
2023-05-24T01:31:09.009Z,98824.94
2023-05-24T01:34:12.632Z,98824.03
2023-05-24T01:37:15.412Z,98831.25
2023-05-24T01:40:18.207Z,98827.84
2023-05-24T01:43:29.576Z,98827.69
2023-05-24T01:46:37.117Z,98832.97
2023-05-24T01:49:43.864Z,98830.56
2023-05-24T01:52:47.817Z,98836.19
2023-05-24T01:55:51.817Z,98833.22
2023-05-24T01:58:55.970Z,98832.84
2023-05-24T02:01:58.984Z,98830.91
2023-05-24T02:05:01.842Z,98838.94
2023-05-24T02:08:04.552Z,98834.47
2023-05-24T02:11:07.489Z,98835.75
2023-05-24T02:14:11.641Z,98845.59
2023-05-24T02:17:14.524Z,98839.53
2023-05-24T02:20:18.044Z,98839.41
2023-05-24T02:23:20.703Z,98842.06
2023-05-24T02:26:23.344Z,98841.69
2023-05-24T02:29:27.436Z,98850.66
2023-05-24T02:32:30.038Z,98845.59
2023-05-24T02:35:33.583Z,98838.81
2023-05-24T02:38:37.152Z,98854.41
2023-05-24T02:41:39.822Z,98846.84
2023-05-24T02:44:47.630Z,98850.28
2023-05-24T02:47:50.647Z,98838.03
2023-05-24T02:50:53.360Z,98841.47
2023-05-24T02:53:56.185Z,98845.81
2023-05-24T02:56:58.926Z,98843.72
2023-05-24T03:00:03.275Z,98844.63
2023-05-24T03:03:06.881Z,98846.78
2023-05-24T03:06:09.687Z,98844.41
2023-05-24T03:09:12.401Z,98837.78
2023-05-24T03:12:15.096Z,98840.28
2023-05-24T03:15:19.161Z,98842.56
2023-05-24T03:18:21.730Z,98836.59
2023-05-24T03:21:25.320Z,98852.97
2023-05-24T03:24:28.037Z,98842.03
2023-05-24T03:27:30.634Z,98842.28
2023-05-24T03:30:34.983Z,98839.97
2023-05-24T03:33:37.576Z,98842.66
2023-05-24T03:36:40.265Z,98844.50
2023-05-24T03:39:42.954Z,98848.19
2023-05-24T03:42:45.568Z,98846.91
2023-05-24T03:45:49.601Z,98837.13
2023-05-24T03:48:52.336Z,98844.72
2023-05-24T03:51:55.050Z,98852.59
2023-05-24T03:54:57.654Z,98843.22
2023-05-24T03:58:00.164Z,98849.41
2023-05-24T04:01:04.281Z,98846.72
2023-05-24T04:04:06.939Z,98841.09
2023-05-24T04:07:11.925Z,98836.09
2023-05-24T04:10:14.513Z,98832.28
2023-05-24T04:13:17.251Z,98844.91
2023-05-24T04:16:21.228Z,98836.38
2023-05-24T04:19:23.840Z,98833.88
2023-05-24T04:22:26.450Z,98831.84
2023-05-24T04:25:29.598Z,98835.19
2023-05-24T04:28:33.271Z,98838.88
2023-05-24T04:31:37.363Z,98838.97
2023-05-24T04:34:42.589Z,98843.84
2023-05-24T04:37:45.165Z,98846.06
2023-05-24T04:40:48.008Z,98842.47
2023-05-24T04:43:50.560Z,98850.81
2023-05-24T04:46:54.564Z,98848.06
2023-05-24T04:49:57.292Z,98851.81
2023-05-24T04:52:59.962Z,98865.88
2023-05-24T04:56:02.663Z,98859.34
2023-05-24T04:59:05.779Z,98869.88
2023-05-24T05:02:09.808Z,98869.53
2023-05-24T05:05:12.769Z,98879.28
2023-05-24T05:08:15.414Z,98879.47
2023-05-24T05:11:18.679Z,98882.63
2023-05-24T05:14:21.460Z,98887.56
2023-05-24T05:17:25.545Z,98884.25
2023-05-24T05:20:28.344Z,98885.03
2023-05-24T05:23:31.051Z,98883.91
2023-05-24T05:26:33.615Z,98879.44
2023-05-24T05:29:36.162Z,98877.31
2023-05-24T05:32:40.360Z,98880.75
2023-05-24T05:35:43.291Z,98885.69
2023-05-24T05:38:46.498Z,98883.66
2023-05-24T05:41:49.379Z,98888.91
2023-05-24T05:44:52.625Z,98877.00
2023-05-24T05:47:56.743Z,98876.44
2023-05-24T05:50:59.493Z,98875.28
2023-05-24T05:54:02.067Z,98880.75
2023-05-24T05:57:05.233Z,98877.97
2023-05-24T06:00:09.171Z,98875.81
2023-05-24T06:03:13.362Z,98881.78
2023-05-24T06:06:16.158Z,98874.22
2023-05-24T06:09:18.902Z,98876.16
2023-05-24T06:12:21.523Z,98878.94
2023-05-24T06:15:24.447Z,98875.50
2023-05-24T06:18:30.429Z,98878.50
2023-05-24T06:21:33.098Z,98870.75
2023-05-24T06:24:35.657Z,98873.81
2023-05-24T06:27:38.171Z,98875.94
2023-05-24T06:30:41.250Z,98869.84
2023-05-24T06:33:52.437Z,98873.41
2023-05-24T06:37:05.548Z,98869.28
2023-05-24T06:40:10.134Z,98877.31
2023-05-24T06:43:12.888Z,98887.94
2023-05-24T06:46:15.797Z,98889.47
2023-05-24T06:49:19.741Z,98881.94
2023-05-24T06:52:22.875Z,98891.00
2023-05-24T06:55:25.581Z,98899.88
2023-05-24T06:58:28.132Z,98898.06
2023-05-24T07:01:30.855Z,98895.97
2023-05-24T07:04:34.919Z,98905.97
2023-05-24T07:07:37.723Z,98903.22
2023-05-24T07:10:40.608Z,98913.34
2023-05-24T07:13:43.433Z,98912.53
2023-05-24T07:16:46.889Z,98920.09
2023-05-24T07:19:51.662Z,98917.31
2023-05-24T07:22:54.629Z,98930.16
2023-05-24T07:25:57.278Z,98931.84
2023-05-24T07:29:00.024Z,98930.03
2023-05-24T07:32:02.874Z,98934.63
2023-05-24T07:35:08.055Z,98935.63
2023-05-24T07:38:11.728Z,98934.75
2023-05-24T07:41:14.869Z,98945.03
2023-05-24T07:44:18.318Z,98939.88
2023-05-24T07:47:20.943Z,98936.28
2023-05-24T07:50:25.256Z,98938.34
2023-05-24T07:53:28.042Z,98945.88
2023-05-24T07:56:30.540Z,98945.22
2023-05-24T07:59:33.205Z,98944.69
2023-05-24T08:02:36.125Z,98950.91
2023-05-24T08:05:40.442Z,98939.38
2023-05-24T08:08:43.278Z,98943.53
2023-05-24T08:11:45.914Z,98958.28
2023-05-24T08:14:48.499Z,98953.59
2023-05-24T08:17:51.420Z,98962.03
2023-05-24T08:20:55.341Z,98968.88
2023-05-24T08:23:58.621Z,98973.88
2023-05-24T08:27:01.301Z,98964.16
2023-05-24T08:30:05.015Z,98970.97
2023-05-24T08:33:07.598Z,98965.00
2023-05-24T08:36:12.154Z,98974.41
2023-05-24T08:39:14.889Z,98972.66
2023-05-24T08:42:17.951Z,98979.03
2023-05-24T08:45:22.896Z,98976.84
2023-05-24T08:48:26.767Z,98972.47
2023-05-24T08:51:30.979Z,98975.59
2023-05-24T08:54:34.575Z,98978.00
2023-05-24T08:57:39.533Z,98978.41
2023-05-24T09:00:42.232Z,98981.19
2023-05-24T09:03:46.440Z,98978.94
2023-05-24T09:06:51.052Z,98979.19
2023-05-24T09:09:58.349Z,98973.81
2023-05-24T09:13:04.033Z,98972.50
2023-05-24T09:16:07.360Z,98976.63
2023-05-24T09:19:09.878Z,98979.94
2023-05-24T09:22:16.234Z,98968.13
2023-05-24T09:25:20.303Z,98967.94
2023-05-24T09:28:24.747Z,98976.19
2023-05-24T09:31:33.999Z,98969.22
2023-05-24T09:34:40.346Z,98975.31
2023-05-24T09:37:45.488Z,98973.09
2023-05-24T09:40:48.203Z,98983.66
2023-05-24T09:43:51.047Z,98983.03
2023-05-24T09:46:53.809Z,98976.38
2023-05-24T09:49:56.546Z,98974.22
2023-05-24T09:53:01.119Z,98986.69
2023-05-24T09:56:05.125Z,98981.97
2023-05-24T09:59:09.894Z,98981.44
2023-05-24T10:02:13.142Z,98985.66
2023-05-24T10:05:15.748Z,98989.38
2023-05-24T10:08:20.306Z,98985.91
2023-05-24T10:11:22.961Z,98988.06
2023-05-24T10:14:26.746Z,98988.75
2023-05-24T10:17:29.544Z,98994.09
2023-05-24T10:20:32.550Z,98987.13
2023-05-24T10:23:39.327Z,98980.47
2023-05-24T10:26:42.567Z,98985.84
2023-05-24T10:29:50.021Z,98982.13
2023-05-24T10:32:53.723Z,98981.03
2023-05-24T10:35:57.349Z,98985.84
2023-05-24T10:39:01.751Z,98981.66
2023-05-24T10:42:09.421Z,98973.38
2023-05-24T10:45:33.486Z,98980.00
2023-05-24T10:48:39.717Z,98974.03
2023-05-24T10:51:42.401Z,98978.31
2023-05-24T10:55:05.442Z,98971.56
2023-05-24T10:58:08.527Z,98976.28
2023-05-24T11:01:14.631Z,98970.28
2023-05-24T11:04:18.217Z,98964.75
2023-05-24T11:07:21.101Z,98966.34
2023-05-24T11:10:32.702Z,98965.19
2023-05-24T11:13:35.373Z,98968.38
2023-05-24T11:16:40.381Z,98961.69
2023-05-24T11:19:47.982Z,98966.69
2023-05-24T11:22:51.878Z,98968.19
2023-05-24T11:25:57.173Z,98961.34
2023-05-24T11:29:04.794Z,98961.81
2023-05-24T11:32:08.224Z,98957.75
2023-05-24T11:35:11.670Z,98951.94
2023-05-24T11:38:14.884Z,98959.19
2023-05-24T11:41:19.601Z,98954.34
2023-05-24T11:44:22.888Z,98944.59
2023-05-24T11:47:25.858Z,98951.63
2023-05-24T11:50:28.819Z,98935.75
2023-05-24T11:53:31.540Z,98930.81
2023-05-24T11:56:35.757Z,98931.91
2023-05-24T11:59:38.758Z,98932.00
2023-05-24T12:02:42.339Z,98931.63
2023-05-24T12:05:45.102Z,98930.16
2023-05-24T12:08:47.857Z,98923.66
2023-05-24T12:11:52.754Z,98924.31
2023-05-24T12:14:56.647Z,98918.66
2023-05-24T12:17:59.767Z,98925.59
2023-05-24T12:21:02.897Z,98924.22
2023-05-24T12:24:10.554Z,98932.25
2023-05-24T12:27:14.647Z,98929.34
2023-05-24T12:30:21.312Z,98920.78
2023-05-24T12:33:24.884Z,98917.59
2023-05-24T12:36:29.383Z,98920.59
2023-05-24T12:39:34.352Z,98907.97
2023-05-24T12:42:38.609Z,98909.16
2023-05-24T12:45:41.403Z,98896.72
2023-05-24T12:48:44.091Z,98910.03
2023-05-24T12:51:49.116Z,98897.25
2023-05-24T12:54:52.090Z,98897.28
2023-05-24T12:57:56.465Z,98896.31
2023-05-24T13:00:59.054Z,98882.19
2023-05-24T13:04:01.765Z,98892.69
2023-05-24T13:07:04.419Z,98890.38
2023-05-24T13:10:08.101Z,98890.81
2023-05-24T13:13:12.407Z,98883.56
2023-05-24T13:16:15.133Z,98887.16
2023-05-24T13:19:18.072Z,98878.53
2023-05-24T13:22:21.270Z,98873.34
2023-05-24T13:25:23.758Z,98868.78
2023-05-24T13:28:28.601Z,98871.78
2023-05-24T13:31:31.667Z,98858.38
2023-05-24T13:34:34.266Z,98861.09
2023-05-24T13:37:36.954Z,98863.81
2023-05-24T13:40:41.877Z,98858.38
2023-05-24T13:43:45.947Z,98841.53
2023-05-24T13:46:48.614Z,98855.06
2023-05-24T13:49:51.181Z,98851.53
2023-05-24T13:52:53.831Z,98846.00
2023-05-24T13:55:56.615Z,98850.69
2023-05-24T13:59:00.914Z,98843.22
2023-05-24T14:02:03.720Z,98838.22
2023-05-24T14:05:24.903Z,98830.66
2023-05-24T14:08:29.822Z,98836.00
2023-05-24T14:11:32.622Z,98825.78
2023-05-24T14:14:59.215Z,98823.09
2023-05-24T14:18:00.827Z,98814.19
2023-05-24T14:21:03.634Z,98814.78
2023-05-24T14:24:06.467Z,98815.28
2023-05-24T14:27:09.086Z,98804.41
2023-05-24T14:30:13.949Z,98810.31
2023-05-24T14:33:16.708Z,98814.97
2023-05-24T14:36:19.735Z,98819.81
2023-05-24T14:39:22.632Z,98805.88
2023-05-24T14:42:25.211Z,98807.16
2023-05-24T14:45:29.187Z,98809.97
2023-05-24T14:48:31.815Z,98813.41
2023-05-24T14:51:34.790Z,98806.66
2023-05-24T14:54:37.680Z,98820.88
2023-05-24T14:57:40.428Z,98812.22
2023-05-24T15:00:45.131Z,98806.34
2023-05-24T15:03:48.182Z,98818.41
2023-05-24T15:06:50.964Z,98814.59
2023-05-24T15:09:53.464Z,98822.09
2023-05-24T15:12:56.036Z,98815.81
2023-05-24T15:16:00.715Z,98817.50
2023-05-24T15:19:03.765Z,98812.44
2023-05-24T15:22:07.267Z,98803.59
2023-05-24T15:25:10.753Z,98803.84
2023-05-24T15:28:15.827Z,98804.41
2023-05-24T15:31:20.529Z,98810.78
2023-05-24T15:34:23.862Z,98802.59
2023-05-24T15:37:26.664Z,98797.84
2023-05-24T15:40:29.209Z,98806.81
2023-05-24T15:43:31.802Z,98802.56
2023-05-24T15:46:36.426Z,98793.69
2023-05-24T15:49:40.194Z,98795.19
2023-05-24T15:52:42.789Z,98792.53
2023-05-24T15:55:47.126Z,98796.50
2023-05-24T15:58:49.836Z,98792.16
2023-05-24T16:01:54.154Z,98794.72
2023-05-24T16:04:57.348Z,98796.47
2023-05-24T16:08:00.389Z,98805.03
2023-05-24T16:11:03.727Z,98787.25
2023-05-24T16:14:06.555Z,98798.13
2023-05-24T16:17:10.612Z,98791.34
2023-05-24T16:20:13.277Z,98787.38
2023-05-24T16:23:16.186Z,98793.81
2023-05-24T16:26:18.720Z,98786.09
2023-05-24T16:29:21.453Z,98782.94
2023-05-24T16:32:25.360Z,98782.59
2023-05-24T16:35:27.926Z,98777.63
2023-05-24T16:38:30.493Z,98773.94
2023-05-24T16:41:37.340Z,98778.25
2023-05-24T16:44:39.962Z,98778.84
2023-05-24T16:47:44.022Z,98787.56
2023-05-24T16:50:46.736Z,98787.47
2023-05-24T16:53:49.345Z,98789.38
2023-05-24T16:56:54.460Z,98789.53
2023-05-24T16:59:58.099Z,98789.94
2023-05-24T17:03:02.478Z,98796.25
2023-05-24T17:06:05.856Z,98789.84
2023-05-24T17:09:08.349Z,98790.19
2023-05-24T17:12:11.076Z,98785.84
2023-05-24T17:15:13.799Z,98784.25
2023-05-24T17:18:17.704Z,98789.41
2023-05-24T17:21:21.161Z,98787.25
2023-05-24T17:24:27.471Z,98785.38
2023-05-24T17:27:30.004Z,98800.09
2023-05-24T17:30:33.272Z,98789.00
2023-05-24T17:33:37.116Z,98791.81
2023-05-24T17:36:39.950Z,98799.13
2023-05-24T17:39:42.493Z,98801.66
2023-05-24T17:42:45.385Z,98804.66
2023-05-24T17:45:48.038Z,98800.69
2023-05-24T17:48:52.145Z,98810.59
2023-05-24T17:51:55.067Z,98813.50
2023-05-24T17:54:57.730Z,98811.28
2023-05-24T17:58:00.479Z,98810.69
2023-05-24T18:01:05.049Z,98817.28
2023-05-24T18:04:09.044Z,98819.19
2023-05-24T18:07:11.589Z,98819.97
2023-05-24T18:10:14.150Z,98820.84
2023-05-24T18:13:17.004Z,98823.50
2023-05-24T18:16:19.679Z,98833.03
2023-05-24T18:19:23.586Z,98821.72
2023-05-24T18:22:26.319Z,98827.31
2023-05-24T18:25:29.102Z,98834.03
2023-05-24T18:28:31.845Z,98835.44
2023-05-24T18:31:34.633Z,98841.22
2023-05-24T18:34:38.642Z,98841.88
2023-05-24T18:37:41.296Z,98854.59
2023-05-24T18:40:44.184Z,98845.47
2023-05-24T18:43:46.934Z,98853.41
2023-05-24T18:46:50.083Z,98857.19
2023-05-24T18:49:54.068Z,98861.75
2023-05-24T18:52:56.608Z,98865.31
2023-05-24T18:56:00.017Z,98872.28
2023-05-24T18:59:02.692Z,98868.72
2023-05-24T19:02:06.246Z,98872.44
2023-05-24T19:05:11.092Z,98874.53
2023-05-24T19:08:13.699Z,98875.22
2023-05-24T19:11:16.431Z,98873.97
2023-05-24T19:14:20.529Z,98881.44
2023-05-24T19:17:24.355Z,98887.63
2023-05-24T19:20:28.631Z,98885.09
2023-05-24T19:23:31.350Z,98881.00
2023-05-24T19:26:33.860Z,98892.00
2023-05-24T19:29:39.812Z,98889.47
2023-05-24T19:32:43.046Z,98895.75
2023-05-24T19:35:47.084Z,98899.72
2023-05-24T19:38:51.129Z,98905.38
2023-05-24T19:41:53.912Z,98909.75
2023-05-24T19:44:56.556Z,98912.84
2023-05-24T19:47:59.303Z,98909.78
2023-05-24T19:51:03.499Z,98906.19
2023-05-24T19:54:06.068Z,98910.44
2023-05-24T19:57:08.837Z,98914.69
2023-05-24T20:00:13.851Z,98924.59
2023-05-24T20:03:16.726Z,98920.47
2023-05-24T20:06:20.783Z,98916.97
2023-05-24T20:09:23.431Z,98920.41
2023-05-24T20:12:26.062Z,98920.09
2023-05-24T20:15:29.398Z,98919.31
2023-05-24T20:18:35.001Z,98922.59
2023-05-24T20:21:38.978Z,98927.25
2023-05-24T20:24:41.551Z,98925.69
2023-05-24T20:27:44.900Z,98930.50
2023-05-24T20:30:47.567Z,98922.94
2023-05-24T20:33:51.490Z,98935.84
2023-05-24T20:36:55.636Z,98926.19
2023-05-24T20:39:58.317Z,98932.44
2023-05-24T20:43:01.133Z,98931.00
2023-05-24T20:46:03.928Z,98932.28
2023-05-24T20:49:06.582Z,98939.84
2023-05-24T20:52:10.527Z,98933.41
2023-05-24T20:55:13.035Z,98924.88
2023-05-24T20:58:17.079Z,98928.22
2023-05-24T21:01:19.996Z,98922.94
2023-05-24T21:04:22.669Z,98934.03
2023-05-24T21:07:26.642Z,98928.41
2023-05-24T21:10:29.420Z,98927.28
2023-05-24T21:13:32.106Z,98924.38
2023-05-24T21:16:34.966Z,98930.50
2023-05-24T21:19:37.863Z,98934.50
2023-05-24T21:22:42.051Z,98929.66
2023-05-24T21:25:44.825Z,98929.84
2023-05-24T21:28:47.623Z,98936.25
2023-05-24T21:31:50.210Z,98930.16
2023-05-24T21:34:52.852Z,98929.69
2023-05-24T21:37:57.173Z,98933.72
2023-05-24T21:40:59.784Z,98931.31
2023-05-24T21:44:02.333Z,98941.63
2023-05-24T21:47:05.326Z,98943.53
2023-05-24T21:50:08.671Z,98945.94
2023-05-24T21:53:12.664Z,98945.78
2023-05-24T21:56:15.440Z,98950.06
2023-05-24T21:59:18.209Z,98968.91
2023-05-24T22:02:21.515Z,98966.63
2023-05-24T22:05:26.202Z,98964.69
2023-05-24T22:08:31.873Z,98959.19
2023-05-24T22:11:35.089Z,98962.41
2023-05-24T22:14:38.127Z,98964.16
2023-05-24T22:17:41.916Z,98963.50
2023-05-24T22:20:44.967Z,98952.06
2023-05-24T22:23:48.948Z,98957.66
2023-05-24T22:26:52.457Z,98957.88
2023-05-24T22:29:55.658Z,98948.88
2023-05-24T22:32:58.250Z,98952.59
2023-05-24T22:36:02.017Z,98952.75
2023-05-24T22:39:07.292Z,98955.97
2023-05-24T22:42:09.879Z,98963.78
2023-05-24T22:45:13.998Z,98959.25
2023-05-24T22:48:17.930Z,98961.84
2023-05-24T22:51:20.764Z,98962.66
2023-05-24T22:54:24.750Z,98958.81
2023-05-24T22:57:27.570Z,98963.66
2023-05-24T23:00:30.210Z,98953.50
2023-05-24T23:03:32.872Z,98959.81
2023-05-24T23:06:37.215Z,98959.00
2023-05-24T23:09:41.515Z,98958.19
2023-05-24T23:12:44.552Z,98956.28
2023-05-24T23:15:48.464Z,98950.47
2023-05-24T23:18:51.219Z,98957.56
2023-05-24T23:21:55.351Z,98960.75
2023-05-24T23:24:59.713Z,98958.50
2023-05-24T23:28:02.604Z,98951.41
2023-05-24T23:31:05.323Z,98959.78
2023-05-24T23:34:08.295Z,98950.44
2023-05-24T23:37:10.852Z,98946.88
2023-05-24T23:40:15.155Z,98943.59
2023-05-24T23:43:17.798Z,98947.78
2023-05-24T23:46:20.656Z,98959.50
2023-05-24T23:49:23.315Z,98953.69
2023-05-24T23:52:26.044Z,98956.59
2023-05-24T23:55:30.065Z,98954.50
2023-05-24T23:58:33.508Z,98952.63
